sensor_id;sensor_type;location;lat;lon;timestamp;temperature;humidity
52895;DHT22;38759;53.396;6.722;2024-03-06T00:00:00;4.20;99.90
52895;DHT22;38759;53.396;6.722;2024-03-06T00:02:26;4.20;99.90
52895;DHT22;38759;53.396;6.722;2024-03-06T00:04:51;4.20;99.90
52895;DHT22;38759;53.396;6.722;2024-03-06T00:07:17;4.40;99.90
52895;DHT22;38759;53.396;6.722;2024-03-06T00:09:43;4.20;99.90
52895;DHT22;38759;53.396;6.722;2024-03-06T00:12:08;4.20;99.90
52895;DHT22;38759;53.396;6.722;2024-03-06T00:14:35;4.20;99.90
52895;DHT22;38759;53.396;6.722;2024-03-06T00:17:02;4.20;99.90
52895;DHT22;38759;53.396;6.722;2024-03-06T00:19:32;4.10;99.90
52895;DHT22;38759;53.396;6.722;2024-03-06T00:21:59;4.10;99.90
52895;DHT22;38759;53.396;6.722;2024-03-06T00:24:25;4.20;99.90
52895;DHT22;38759;53.396;6.722;2024-03-06T00:26:50;4.10;99.90
52895;DHT22;38759;53.396;6.722;2024-03-06T00:29:16;4.10;99.90
52895;DHT22;38759;53.396;6.722;2024-03-06T00:31:43;4.10;99.90
52895;DHT22;38759;53.396;6.722;2024-03-06T00:34:12;4.10;99.90
52895;DHT22;38759;53.396;6.722;2024-03-06T00:36:42;4.10;99.90
52895;DHT22;38759;53.396;6.722;2024-03-06T00:39:09;4.10;99.90
52895;DHT22;38759;53.396;6.722;2024-03-06T00:41:35;4.10;99.90
52895;DHT22;38759;53.396;6.722;2024-03-06T00:44:01;4.10;99.90
52895;DHT22;38759;53.396;6.722;2024-03-06T00:46:27;4.10;99.90
52895;DHT22;38759;53.396;6.722;2024-03-06T00:48:53;4.10;99.90
52895;DHT22;38759;53.396;6.722;2024-03-06T00:51:18;4.10;99.90
52895;DHT22;38759;53.396;6.722;2024-03-06T00:53:44;4.20;99.90
52895;DHT22;38759;53.396;6.722;2024-03-06T00:56:10;4.10;99.90
52895;DHT22;38759;53.396;6.722;2024-03-06T00:58:36;4.10;99.90
52895;DHT22;38759;53.396;6.722;2024-03-06T01:01:02;4.10;99.90
52895;DHT22;38759;53.396;6.722;2024-03-06T01:03:27;4.00;99.90
52895;DHT22;38759;53.396;6.722;2024-03-06T01:05:54;4.10;99.90
52895;DHT22;38759;53.396;6.722;2024-03-06T01:08:23;4.20;99.90
52895;DHT22;38759;53.396;6.722;2024-03-06T01:10:51;4.10;99.90
52895;DHT22;38759;53.396;6.722;2024-03-06T01:13:20;4.00;99.90
52895;DHT22;38759;53.396;6.722;2024-03-06T01:15:46;4.00;99.90
52895;DHT22;38759;53.396;6.722;2024-03-06T01:18:11;4.00;99.90
52895;DHT22;38759;53.396;6.722;2024-03-06T01:20:37;4.10;99.90
52895;DHT22;38759;53.396;6.722;2024-03-06T01:23:04;4.20;99.90
52895;DHT22;38759;53.396;6.722;2024-03-06T01:25:29;4.00;99.90
52895;DHT22;38759;53.396;6.722;2024-03-06T01:27:55;4.00;99.90
52895;DHT22;38759;53.396;6.722;2024-03-06T01:30:21;4.00;99.90
52895;DHT22;38759;53.396;6.722;2024-03-06T01:32:46;4.00;99.90
52895;DHT22;38759;53.396;6.722;2024-03-06T01:35:12;4.00;99.90
52895;DHT22;38759;53.396;6.722;2024-03-06T01:37:38;4.00;99.90
52895;DHT22;38759;53.396;6.722;2024-03-06T01:40:04;4.00;99.90
52895;DHT22;38759;53.396;6.722;2024-03-06T01:42:30;4.00;99.90
52895;DHT22;38759;53.396;6.722;2024-03-06T01:44:56;4.00;99.90
52895;DHT22;38759;53.396;6.722;2024-03-06T01:47:22;4.00;99.90
52895;DHT22;38759;53.396;6.722;2024-03-06T01:49:48;4.10;99.90
52895;DHT22;38759;53.396;6.722;2024-03-06T01:52:15;4.10;99.90
52895;DHT22;38759;53.396;6.722;2024-03-06T01:54:42;4.00;99.90
52895;DHT22;38759;53.396;6.722;2024-03-06T01:57:08;4.10;99.90
52895;DHT22;38759;53.396;6.722;2024-03-06T01:59:36;4.10;99.90
52895;DHT22;38759;53.396;6.722;2024-03-06T02:02:03;4.00;99.90
52895;DHT22;38759;53.396;6.722;2024-03-06T02:04:29;4.00;99.90
52895;DHT22;38759;53.396;6.722;2024-03-06T02:06:55;4.00;99.90
52895;DHT22;38759;53.396;6.722;2024-03-06T02:09:20;4.00;99.90
52895;DHT22;38759;53.396;6.722;2024-03-06T02:11:46;4.10;99.90
52895;DHT22;38759;53.396;6.722;2024-03-06T02:14:12;4.20;99.90
52895;DHT22;38759;53.396;6.722;2024-03-06T02:16:38;4.10;99.90
52895;DHT22;38759;53.396;6.722;2024-03-06T02:19:08;4.10;99.90
52895;DHT22;38759;53.396;6.722;2024-03-06T02:21:34;4.10;99.90
52895;DHT22;38759;53.396;6.722;2024-03-06T02:24:00;4.00;99.90
52895;DHT22;38759;53.396;6.722;2024-03-06T02:26:26;4.10;99.90
52895;DHT22;38759;53.396;6.722;2024-03-06T02:28:53;4.10;99.90
52895;DHT22;38759;53.396;6.722;2024-03-06T02:31:20;4.20;99.90
52895;DHT22;38759;53.396;6.722;2024-03-06T02:33:47;4.10;99.90
52895;DHT22;38759;53.396;6.722;2024-03-06T02:36:14;4.10;99.90
52895;DHT22;38759;53.396;6.722;2024-03-06T02:38:39;4.10;99.90
52895;DHT22;38759;53.396;6.722;2024-03-06T02:41:05;4.10;99.90
52895;DHT22;38759;53.396;6.722;2024-03-06T02:43:33;4.00;99.90
52895;DHT22;38759;53.396;6.722;2024-03-06T02:45:58;4.10;99.90
52895;DHT22;38759;53.396;6.722;2024-03-06T02:48:24;4.10;99.90
52895;DHT22;38759;53.396;6.722;2024-03-06T02:50:50;4.10;99.90
52895;DHT22;38759;53.396;6.722;2024-03-06T02:53:16;4.10;99.90
52895;DHT22;38759;53.396;6.722;2024-03-06T02:55:41;4.10;99.90
52895;DHT22;38759;53.396;6.722;2024-03-06T02:58:07;4.10;99.90
52895;DHT22;38759;53.396;6.722;2024-03-06T03:00:33;4.10;99.90
52895;DHT22;38759;53.396;6.722;2024-03-06T03:02:58;4.10;99.90
52895;DHT22;38759;53.396;6.722;2024-03-06T03:05:24;4.20;99.90
52895;DHT22;38759;53.396;6.722;2024-03-06T03:07:50;4.10;99.90
52895;DHT22;38759;53.396;6.722;2024-03-06T03:10:16;4.10;99.90
52895;DHT22;38759;53.396;6.722;2024-03-06T03:12:42;4.10;99.90
52895;DHT22;38759;53.396;6.722;2024-03-06T03:15:09;4.10;99.90
52895;DHT22;38759;53.396;6.722;2024-03-06T03:17:35;4.10;99.90
52895;DHT22;38759;53.396;6.722;2024-03-06T03:20:02;4.10;99.90
52895;DHT22;38759;53.396;6.722;2024-03-06T03:22:39;4.10;99.90
52895;DHT22;38759;53.396;6.722;2024-03-06T03:25:09;4.10;99.90
52895;DHT22;38759;53.396;6.722;2024-03-06T03:27:37;4.10;99.90
52895;DHT22;38759;53.396;6.722;2024-03-06T03:30:04;4.00;99.90
52895;DHT22;38759;53.396;6.722;2024-03-06T03:32:30;4.10;99.90
52895;DHT22;38759;53.396;6.722;2024-03-06T03:34:56;4.00;99.90
52895;DHT22;38759;53.396;6.722;2024-03-06T03:37:21;4.00;99.90
52895;DHT22;38759;53.396;6.722;2024-03-06T03:39:47;4.10;99.90
52895;DHT22;38759;53.396;6.722;2024-03-06T03:42:13;4.00;99.90
52895;DHT22;38759;53.396;6.722;2024-03-06T03:44:38;4.10;99.90
52895;DHT22;38759;53.396;6.722;2024-03-06T03:47:05;4.10;99.90
52895;DHT22;38759;53.396;6.722;2024-03-06T03:49:31;4.00;99.90
52895;DHT22;38759;53.396;6.722;2024-03-06T03:51:57;4.10;99.90
52895;DHT22;38759;53.396;6.722;2024-03-06T03:54:22;4.00;99.90
52895;DHT22;38759;53.396;6.722;2024-03-06T03:56:48;4.00;99.90
52895;DHT22;38759;53.396;6.722;2024-03-06T03:59:14;4.00;99.90
52895;DHT22;38759;53.396;6.722;2024-03-06T04:01:40;4.00;99.90
52895;DHT22;38759;53.396;6.722;2024-03-06T04:04:05;4.00;99.90
52895;DHT22;38759;53.396;6.722;2024-03-06T04:06:33;4.10;99.90
52895;DHT22;38759;53.396;6.722;2024-03-06T04:08:59;4.00;99.90
52895;DHT22;38759;53.396;6.722;2024-03-06T04:11:26;4.10;99.90
52895;DHT22;38759;53.396;6.722;2024-03-06T04:13:52;4.10;99.90
52895;DHT22;38759;53.396;6.722;2024-03-06T04:16:17;4.00;99.90
52895;DHT22;38759;53.396;6.722;2024-03-06T04:18:44;4.00;99.90
52895;DHT22;38759;53.396;6.722;2024-03-06T04:21:10;4.10;99.90
52895;DHT22;38759;53.396;6.722;2024-03-06T04:23:36;4.00;99.90
52895;DHT22;38759;53.396;6.722;2024-03-06T04:26:03;4.10;99.90
52895;DHT22;38759;53.396;6.722;2024-03-06T04:28:29;4.00;99.90
52895;DHT22;38759;53.396;6.722;2024-03-06T04:30:55;4.00;99.90
52895;DHT22;38759;53.396;6.722;2024-03-06T04:33:21;4.10;99.90
52895;DHT22;38759;53.396;6.722;2024-03-06T04:35:47;4.10;99.90
52895;DHT22;38759;53.396;6.722;2024-03-06T04:38:13;4.10;99.90
52895;DHT22;38759;53.396;6.722;2024-03-06T04:40:39;4.10;99.90
52895;DHT22;38759;53.396;6.722;2024-03-06T04:43:05;4.00;99.90
52895;DHT22;38759;53.396;6.722;2024-03-06T04:45:32;4.00;99.90
52895;DHT22;38759;53.396;6.722;2024-03-06T04:47:57;4.00;99.90
52895;DHT22;38759;53.396;6.722;2024-03-06T04:50:24;4.00;99.90
52895;DHT22;38759;53.396;6.722;2024-03-06T04:52:49;4.40;99.90
52895;DHT22;38759;53.396;6.722;2024-03-06T04:55:15;4.10;99.90
52895;DHT22;38759;53.396;6.722;2024-03-06T04:57:45;4.00;99.90
52895;DHT22;38759;53.396;6.722;2024-03-06T05:00:15;4.10;99.90
52895;DHT22;38759;53.396;6.722;2024-03-06T05:02:41;4.10;99.90
52895;DHT22;38759;53.396;6.722;2024-03-06T05:05:07;4.20;99.90
52895;DHT22;38759;53.396;6.722;2024-03-06T05:07:36;4.10;99.90
52895;DHT22;38759;53.396;6.722;2024-03-06T05:10:02;4.00;99.90
52895;DHT22;38759;53.396;6.722;2024-03-06T05:12:28;4.10;99.90
52895;DHT22;38759;53.396;6.722;2024-03-06T05:14:54;4.10;99.90
52895;DHT22;38759;53.396;6.722;2024-03-06T05:17:20;4.20;99.90
52895;DHT22;38759;53.396;6.722;2024-03-06T05:19:47;4.10;99.90
52895;DHT22;38759;53.396;6.722;2024-03-06T05:22:14;4.10;99.90
52895;DHT22;38759;53.396;6.722;2024-03-06T05:24:41;4.10;99.90
52895;DHT22;38759;53.396;6.722;2024-03-06T05:27:08;4.10;99.90
52895;DHT22;38759;53.396;6.722;2024-03-06T05:29:33;4.20;99.90
52895;DHT22;38759;53.396;6.722;2024-03-06T05:31:59;4.10;99.90
52895;DHT22;38759;53.396;6.722;2024-03-06T05:34:25;4.00;99.90
52895;DHT22;38759;53.396;6.722;2024-03-06T05:36:51;4.10;99.90
52895;DHT22;38759;53.396;6.722;2024-03-06T05:39:16;4.10;99.90
52895;DHT22;38759;53.396;6.722;2024-03-06T05:41:43;4.10;99.90
52895;DHT22;38759;53.396;6.722;2024-03-06T05:44:09;4.10;99.90
52895;DHT22;38759;53.396;6.722;2024-03-06T05:46:35;4.10;99.90
52895;DHT22;38759;53.396;6.722;2024-03-06T05:49:02;4.10;99.90
52895;DHT22;38759;53.396;6.722;2024-03-06T05:51:28;4.10;99.90
52895;DHT22;38759;53.396;6.722;2024-03-06T05:53:54;4.10;99.90
52895;DHT22;38759;53.396;6.722;2024-03-06T05:56:20;4.20;99.90
52895;DHT22;38759;53.396;6.722;2024-03-06T05:58:48;4.10;99.90
52895;DHT22;38759;53.396;6.722;2024-03-06T06:01:18;4.10;99.90
52895;DHT22;38759;53.396;6.722;2024-03-06T06:03:48;4.20;99.90
52895;DHT22;38759;53.396;6.722;2024-03-06T06:06:17;4.10;99.90
52895;DHT22;38759;53.396;6.722;2024-03-06T06:08:45;4.10;99.90
52895;DHT22;38759;53.396;6.722;2024-03-06T06:11:11;4.10;99.90
52895;DHT22;38759;53.396;6.722;2024-03-06T06:13:37;4.30;99.90
52895;DHT22;38759;53.396;6.722;2024-03-06T06:16:05;4.10;99.90
52895;DHT22;38759;53.396;6.722;2024-03-06T06:18:31;4.10;99.90
52895;DHT22;38759;53.396;6.722;2024-03-06T06:20:58;4.10;99.90
52895;DHT22;38759;53.396;6.722;2024-03-06T06:23:24;4.10;99.90
52895;DHT22;38759;53.396;6.722;2024-03-06T06:25:49;4.10;99.90
52895;DHT22;38759;53.396;6.722;2024-03-06T06:28:15;4.10;99.90
52895;DHT22;38759;53.396;6.722;2024-03-06T06:30:41;4.10;99.90
52895;DHT22;38759;53.396;6.722;2024-03-06T06:33:07;4.10;99.90
52895;DHT22;38759;53.396;6.722;2024-03-06T06:35:34;4.10;99.90
52895;DHT22;38759;53.396;6.722;2024-03-06T06:38:03;4.10;99.90
52895;DHT22;38759;53.396;6.722;2024-03-06T06:40:30;4.10;99.90
52895;DHT22;38759;53.396;6.722;2024-03-06T06:42:56;4.10;99.90
52895;DHT22;38759;53.396;6.722;2024-03-06T06:45:22;4.20;99.90
52895;DHT22;38759;53.396;6.722;2024-03-06T06:47:48;4.10;99.90
52895;DHT22;38759;53.396;6.722;2024-03-06T06:50:15;4.10;99.90
52895;DHT22;38759;53.396;6.722;2024-03-06T06:52:44;4.10;99.90
52895;DHT22;38759;53.396;6.722;2024-03-06T06:55:09;4.10;99.90
52895;DHT22;38759;53.396;6.722;2024-03-06T06:57:37;4.20;99.90
52895;DHT22;38759;53.396;6.722;2024-03-06T07:00:04;4.10;99.90
52895;DHT22;38759;53.396;6.722;2024-03-06T07:02:42;4.10;99.90
52895;DHT22;38759;53.396;6.722;2024-03-06T07:05:09;4.10;99.90
52895;DHT22;38759;53.396;6.722;2024-03-06T07:07:35;4.20;99.90
52895;DHT22;38759;53.396;6.722;2024-03-06T07:10:02;4.10;99.90
52895;DHT22;38759;53.396;6.722;2024-03-06T07:12:28;4.10;99.90
52895;DHT22;38759;53.396;6.722;2024-03-06T07:14:54;4.20;99.90
52895;DHT22;38759;53.396;6.722;2024-03-06T07:17:19;4.70;99.90
52895;DHT22;38759;53.396;6.722;2024-03-06T07:19:45;4.20;99.90
52895;DHT22;38759;53.396;6.722;2024-03-06T07:22:11;4.90;99.90
52895;DHT22;38759;53.396;6.722;2024-03-06T07:24:36;4.20;99.90
52895;DHT22;38759;53.396;6.722;2024-03-06T07:27:03;4.80;99.90
52895;DHT22;38759;53.396;6.722;2024-03-06T07:29:28;4.20;99.90
52895;DHT22;38759;53.396;6.722;2024-03-06T07:31:54;4.30;99.90
52895;DHT22;38759;53.396;6.722;2024-03-06T07:34:20;4.20;99.90
52895;DHT22;38759;53.396;6.722;2024-03-06T07:36:49;4.20;99.90
52895;DHT22;38759;53.396;6.722;2024-03-06T07:39:19;4.60;99.90
52895;DHT22;38759;53.396;6.722;2024-03-06T07:41:48;4.30;99.90
52895;DHT22;38759;53.396;6.722;2024-03-06T07:44:14;4.30;99.90
52895;DHT22;38759;53.396;6.722;2024-03-06T07:46:39;4.30;99.90
52895;DHT22;38759;53.396;6.722;2024-03-06T07:49:05;4.30;99.90
52895;DHT22;38759;53.396;6.722;2024-03-06T07:51:34;4.40;99.90
52895;DHT22;38759;53.396;6.722;2024-03-06T07:54:00;4.30;99.90
52895;DHT22;38759;53.396;6.722;2024-03-06T07:56:26;4.40;99.90
52895;DHT22;38759;53.396;6.722;2024-03-06T07:58:52;4.30;99.90
52895;DHT22;38759;53.396;6.722;2024-03-06T08:01:19;4.30;99.90
52895;DHT22;38759;53.396;6.722;2024-03-06T08:03:45;4.30;99.90
52895;DHT22;38759;53.396;6.722;2024-03-06T08:06:10;4.30;99.90
52895;DHT22;38759;53.396;6.722;2024-03-06T08:08:36;4.50;99.90
52895;DHT22;38759;53.396;6.722;2024-03-06T08:11:13;4.50;99.90
52895;DHT22;38759;53.396;6.722;2024-03-06T08:13:39;4.40;99.90
52895;DHT22;38759;53.396;6.722;2024-03-06T08:16:05;4.40;99.90
52895;DHT22;38759;53.396;6.722;2024-03-06T08:18:33;4.40;99.90
52895;DHT22;38759;53.396;6.722;2024-03-06T08:20:59;4.40;99.90
52895;DHT22;38759;53.396;6.722;2024-03-06T08:23:24;4.50;99.90
52895;DHT22;38759;53.396;6.722;2024-03-06T08:25:50;4.50;99.90
52895;DHT22;38759;53.396;6.722;2024-03-06T08:28:16;4.60;99.90
52895;DHT22;38759;53.396;6.722;2024-03-06T08:30:42;4.60;99.90
52895;DHT22;38759;53.396;6.722;2024-03-06T08:33:09;4.60;99.90
52895;DHT22;38759;53.396;6.722;2024-03-06T08:35:35;4.60;99.90
52895;DHT22;38759;53.396;6.722;2024-03-06T08:38:01;4.60;99.90
52895;DHT22;38759;53.396;6.722;2024-03-06T08:40:27;4.70;99.90
52895;DHT22;38759;53.396;6.722;2024-03-06T08:42:54;4.70;99.90
52895;DHT22;38759;53.396;6.722;2024-03-06T08:45:20;4.80;99.90
52895;DHT22;38759;53.396;6.722;2024-03-06T08:47:46;4.80;99.90
52895;DHT22;38759;53.396;6.722;2024-03-06T08:50:13;4.90;99.90
52895;DHT22;38759;53.396;6.722;2024-03-06T08:52:39;4.90;99.90
52895;DHT22;38759;53.396;6.722;2024-03-06T08:55:05;4.90;99.90
52895;DHT22;38759;53.396;6.722;2024-03-06T08:57:34;4.90;99.90
52895;DHT22;38759;53.396;6.722;2024-03-06T09:00:00;5.00;99.90
52895;DHT22;38759;53.396;6.722;2024-03-06T09:02:26;5.00;99.90
52895;DHT22;38759;53.396;6.722;2024-03-06T09:04:52;5.00;99.90
52895;DHT22;38759;53.396;6.722;2024-03-06T09:07:19;5.10;99.90
52895;DHT22;38759;53.396;6.722;2024-03-06T09:09:45;5.10;99.90
52895;DHT22;38759;53.396;6.722;2024-03-06T09:12:11;5.10;99.90
52895;DHT22;38759;53.396;6.722;2024-03-06T09:14:38;5.10;99.90
52895;DHT22;38759;53.396;6.722;2024-03-06T09:17:05;5.30;99.90
52895;DHT22;38759;53.396;6.722;2024-03-06T09:19:31;5.20;99.90
52895;DHT22;38759;53.396;6.722;2024-03-06T09:21:58;5.30;99.90
52895;DHT22;38759;53.396;6.722;2024-03-06T09:24:24;5.30;99.90
52895;DHT22;38759;53.396;6.722;2024-03-06T09:26:53;5.30;99.90
52895;DHT22;38759;53.396;6.722;2024-03-06T09:29:19;5.30;99.90
52895;DHT22;38759;53.396;6.722;2024-03-06T09:31:46;5.40;99.90
52895;DHT22;38759;53.396;6.722;2024-03-06T09:34:13;5.40;99.90
52895;DHT22;38759;53.396;6.722;2024-03-06T09:36:46;5.40;99.90
52895;DHT22;38759;53.396;6.722;2024-03-06T09:39:13;5.50;99.90
52895;DHT22;38759;53.396;6.722;2024-03-06T09:41:45;5.50;99.90
52895;DHT22;38759;53.396;6.722;2024-03-06T09:44:12;5.50;99.90
52895;DHT22;38759;53.396;6.722;2024-03-06T09:46:42;5.50;99.90
52895;DHT22;38759;53.396;6.722;2024-03-06T09:49:11;5.70;99.90
52895;DHT22;38759;53.396;6.722;2024-03-06T09:51:38;5.60;99.90
52895;DHT22;38759;53.396;6.722;2024-03-06T09:54:07;5.80;99.90
52895;DHT22;38759;53.396;6.722;2024-03-06T09:56:35;5.70;99.90
52895;DHT22;38759;53.396;6.722;2024-03-06T09:59:00;5.90;99.90
52895;DHT22;38759;53.396;6.722;2024-03-06T10:01:27;5.70;99.90
52895;DHT22;38759;53.396;6.722;2024-03-06T10:03:54;5.80;99.90
52895;DHT22;38759;53.396;6.722;2024-03-06T10:06:20;5.80;99.90
52895;DHT22;38759;53.396;6.722;2024-03-06T10:08:46;5.80;99.90
52895;DHT22;38759;53.396;6.722;2024-03-06T10:11:17;6.00;99.90
52895;DHT22;38759;53.396;6.722;2024-03-06T10:13:43;5.90;99.90
52895;DHT22;38759;53.396;6.722;2024-03-06T10:16:09;5.90;99.90
52895;DHT22;38759;53.396;6.722;2024-03-06T10:18:36;5.80;99.90
52895;DHT22;38759;53.396;6.722;2024-03-06T10:21:04;5.80;99.90
52895;DHT22;38759;53.396;6.722;2024-03-06T10:23:31;5.80;99.90
52895;DHT22;38759;53.396;6.722;2024-03-06T10:25:57;5.70;99.90
52895;DHT22;38759;53.396;6.722;2024-03-06T10:28:23;5.70;99.90
52895;DHT22;38759;53.396;6.722;2024-03-06T10:30:50;5.70;99.90
52895;DHT22;38759;53.396;6.722;2024-03-06T10:33:18;5.70;99.90
52895;DHT22;38759;53.396;6.722;2024-03-06T10:35:48;5.80;99.90
52895;DHT22;38759;53.396;6.722;2024-03-06T10:38:14;5.70;99.90
52895;DHT22;38759;53.396;6.722;2024-03-06T10:40:41;5.80;99.90
52895;DHT22;38759;53.396;6.722;2024-03-06T10:43:08;5.70;99.90
52895;DHT22;38759;53.396;6.722;2024-03-06T10:45:40;5.70;99.90
52895;DHT22;38759;53.396;6.722;2024-03-06T10:48:08;5.70;99.90
52895;DHT22;38759;53.396;6.722;2024-03-06T10:50:39;5.70;99.90
52895;DHT22;38759;53.396;6.722;2024-03-06T10:53:16;5.80;99.90
52895;DHT22;38759;53.396;6.722;2024-03-06T10:55:45;5.70;99.90
52895;DHT22;38759;53.396;6.722;2024-03-06T10:58:11;5.80;99.90
52895;DHT22;38759;53.396;6.722;2024-03-06T11:00:43;5.90;99.90
52895;DHT22;38759;53.396;6.722;2024-03-06T11:03:10;5.90;99.90
52895;DHT22;38759;53.396;6.722;2024-03-06T11:05:40;5.90;99.90
52895;DHT22;38759;53.396;6.722;2024-03-06T11:08:11;5.90;99.90
52895;DHT22;38759;53.396;6.722;2024-03-06T11:10:39;5.90;99.90
52895;DHT22;38759;53.396;6.722;2024-03-06T11:15:57;5.80;99.90
52895;DHT22;38759;53.396;6.722;2024-03-06T11:23:34;6.10;99.90
52895;DHT22;38759;53.396;6.722;2024-03-06T11:26:03;6.10;99.90
52895;DHT22;38759;53.396;6.722;2024-03-06T11:28:34;6.10;99.90
52895;DHT22;38759;53.396;6.722;2024-03-06T11:31:05;6.10;99.90
52895;DHT22;38759;53.396;6.722;2024-03-06T11:33:38;6.30;99.90
52895;DHT22;38759;53.396;6.722;2024-03-06T11:36:23;6.20;99.90
52895;DHT22;38759;53.396;6.722;2024-03-06T11:39:03;6.20;99.90
52895;DHT22;38759;53.396;6.722;2024-03-06T11:41:31;6.20;99.90
52895;DHT22;38759;53.396;6.722;2024-03-06T11:43:59;6.30;99.90
52895;DHT22;38759;53.396;6.722;2024-03-06T11:46:44;6.40;99.90
52895;DHT22;38759;53.396;6.722;2024-03-06T11:49:18;6.40;99.90
52895;DHT22;38759;53.396;6.722;2024-03-06T11:51:46;6.40;99.90
52895;DHT22;38759;53.396;6.722;2024-03-06T11:54:13;6.50;99.90
52895;DHT22;38759;53.396;6.722;2024-03-06T11:56:44;6.80;99.90
52895;DHT22;38759;53.396;6.722;2024-03-06T11:59:10;6.60;99.90
52895;DHT22;38759;53.396;6.722;2024-03-06T12:01:41;6.70;99.90
52895;DHT22;38759;53.396;6.722;2024-03-06T12:04:06;6.70;99.90
52895;DHT22;38759;53.396;6.722;2024-03-06T12:06:33;6.80;99.90
52895;DHT22;38759;53.396;6.722;2024-03-06T12:08:59;6.80;99.90
52895;DHT22;38759;53.396;6.722;2024-03-06T12:11:25;6.80;99.90
52895;DHT22;38759;53.396;6.722;2024-03-06T12:13:51;7.00;99.90
52895;DHT22;38759;53.396;6.722;2024-03-06T12:16:17;7.10;99.90
52895;DHT22;38759;53.396;6.722;2024-03-06T12:18:43;7.00;99.90
52895;DHT22;38759;53.396;6.722;2024-03-06T12:21:12;7.00;99.90
52895;DHT22;38759;53.396;6.722;2024-03-06T12:23:41;7.10;99.90
52895;DHT22;38759;53.396;6.722;2024-03-06T12:26:08;7.10;99.90
52895;DHT22;38759;53.396;6.722;2024-03-06T12:28:38;7.30;99.90
52895;DHT22;38759;53.396;6.722;2024-03-06T12:31:08;7.20;99.90
52895;DHT22;38759;53.396;6.722;2024-03-06T12:33:33;7.30;99.90
52895;DHT22;38759;53.396;6.722;2024-03-06T12:36:04;7.30;99.90
52895;DHT22;38759;53.396;6.722;2024-03-06T12:38:30;7.30;99.90
52895;DHT22;38759;53.396;6.722;2024-03-06T12:40:56;7.40;99.90
52895;DHT22;38759;53.396;6.722;2024-03-06T12:43:25;7.50;99.90
52895;DHT22;38759;53.396;6.722;2024-03-06T12:45:51;7.40;99.90
52895;DHT22;38759;53.396;6.722;2024-03-06T12:48:20;7.50;99.90
52895;DHT22;38759;53.396;6.722;2024-03-06T12:50:46;7.60;99.90
52895;DHT22;38759;53.396;6.722;2024-03-06T12:53:20;7.60;99.90
52895;DHT22;38759;53.396;6.722;2024-03-06T12:55:46;7.60;99.90
52895;DHT22;38759;53.396;6.722;2024-03-06T12:58:13;7.60;99.90
52895;DHT22;38759;53.396;6.722;2024-03-06T13:00:38;7.70;99.90
52895;DHT22;38759;53.396;6.722;2024-03-06T13:03:05;7.70;99.90
52895;DHT22;38759;53.396;6.722;2024-03-06T13:05:31;7.70;99.90
52895;DHT22;38759;53.396;6.722;2024-03-06T13:07:57;7.80;99.90
52895;DHT22;38759;53.396;6.722;2024-03-06T13:10:23;7.80;99.90
52895;DHT22;38759;53.396;6.722;2024-03-06T13:12:48;7.80;99.90
52895;DHT22;38759;53.396;6.722;2024-03-06T13:15:14;7.80;99.90
52895;DHT22;38759;53.396;6.722;2024-03-06T13:17:40;7.80;99.90
52895;DHT22;38759;53.396;6.722;2024-03-06T13:20:07;7.90;99.90
52895;DHT22;38759;53.396;6.722;2024-03-06T13:22:37;7.90;99.90
52895;DHT22;38759;53.396;6.722;2024-03-06T13:25:03;8.10;99.90
52895;DHT22;38759;53.396;6.722;2024-03-06T13:27:30;7.90;99.90
52895;DHT22;38759;53.396;6.722;2024-03-06T13:29:56;7.90;99.90
52895;DHT22;38759;53.396;6.722;2024-03-06T13:32:22;7.90;99.90
52895;DHT22;38759;53.396;6.722;2024-03-06T13:34:48;8.00;99.90
52895;DHT22;38759;53.396;6.722;2024-03-06T13:37:14;8.10;99.90
52895;DHT22;38759;53.396;6.722;2024-03-06T13:39:40;8.10;99.90
52895;DHT22;38759;53.396;6.722;2024-03-06T13:42:06;8.20;99.90
52895;DHT22;38759;53.396;6.722;2024-03-06T13:44:36;8.20;99.90
52895;DHT22;38759;53.396;6.722;2024-03-06T13:47:03;8.30;99.90
52895;DHT22;38759;53.396;6.722;2024-03-06T13:49:38;8.30;99.90
52895;DHT22;38759;53.396;6.722;2024-03-06T13:52:04;8.40;99.90
52895;DHT22;38759;53.396;6.722;2024-03-06T13:54:37;8.40;99.90
52895;DHT22;38759;53.396;6.722;2024-03-06T13:57:03;8.60;99.90
52895;DHT22;38759;53.396;6.722;2024-03-06T13:59:30;8.70;99.90
52895;DHT22;38759;53.396;6.722;2024-03-06T14:01:57;8.80;99.90
52895;DHT22;38759;53.396;6.722;2024-03-06T14:04:24;8.90;99.90
52895;DHT22;38759;53.396;6.722;2024-03-06T14:06:50;9.00;99.90
52895;DHT22;38759;53.396;6.722;2024-03-06T14:09:16;9.10;99.90
52895;DHT22;38759;53.396;6.722;2024-03-06T14:11:42;9.20;99.90
52895;DHT22;38759;53.396;6.722;2024-03-06T14:14:08;9.20;99.90
52895;DHT22;38759;53.396;6.722;2024-03-06T14:16:34;9.30;99.90
52895;DHT22;38759;53.396;6.722;2024-03-06T14:19:00;9.20;99.90
52895;DHT22;38759;53.396;6.722;2024-03-06T14:21:26;9.30;99.90
52895;DHT22;38759;53.396;6.722;2024-03-06T14:23:52;9.30;99.90
52895;DHT22;38759;53.396;6.722;2024-03-06T14:26:18;9.40;99.90
52895;DHT22;38759;53.396;6.722;2024-03-06T14:28:43;9.40;99.90
52895;DHT22;38759;53.396;6.722;2024-03-06T14:31:09;9.60;99.90
52895;DHT22;38759;53.396;6.722;2024-03-06T14:33:41;9.70;99.90
52895;DHT22;38759;53.396;6.722;2024-03-06T14:36:07;9.80;99.90
52895;DHT22;38759;53.396;6.722;2024-03-06T14:38:33;9.90;99.90
52895;DHT22;38759;53.396;6.722;2024-03-06T14:40:59;10.10;99.90
52895;DHT22;38759;53.396;6.722;2024-03-06T14:43:25;10.20;99.90
52895;DHT22;38759;53.396;6.722;2024-03-06T14:45:52;10.30;99.90
52895;DHT22;38759;53.396;6.722;2024-03-06T14:48:17;10.60;99.90
52895;DHT22;38759;53.396;6.722;2024-03-06T14:50:43;10.60;99.90
52895;DHT22;38759;53.396;6.722;2024-03-06T14:53:09;10.70;99.90
52895;DHT22;38759;53.396;6.722;2024-03-06T14:55:35;10.80;99.90
52895;DHT22;38759;53.396;6.722;2024-03-06T14:58:00;10.90;99.90
52895;DHT22;38759;53.396;6.722;2024-03-06T15:00:26;10.70;99.90
52895;DHT22;38759;53.396;6.722;2024-03-06T15:02:52;10.70;99.90
52895;DHT22;38759;53.396;6.722;2024-03-06T15:05:18;10.60;99.90
52895;DHT22;38759;53.396;6.722;2024-03-06T15:07:43;10.50;99.90
52895;DHT22;38759;53.396;6.722;2024-03-06T15:10:09;10.40;99.90
